Metar Report
Metar
METAR KVGC 241156Z AUTO 14007KT 10SM SCT050 OVC065 00/M11 A3024 A02 144
METAR KVGC 241056Z AUTO 15009KT 10SM BKN090 OVC110 00/M12 A3024 A02 143
METAR KVGC 240956Z AUTO 18010G19KT 10SM OVC075 00/M13 A3025 A02 142
METAR KVGC 240856Z AUTO 17011G16KT 10SM OVC080 00/M13 A3028 A02 141
METAR KVGC 240756Z AUTO 15008KT 10SM OVC080 M01/M13 A3031 A02 140
METAR KVGC 240656Z AUTO 17010KT 10SM OVC090 M01/M14 A3034 A02 139
METAR KVGC 240556Z AUTO 16009G14KT 10SM OVC100 M02/M14 A3037 A02 138
METAR KVGC 240456Z AUTO 16005KT 10SM OVC110 M04/M12 A3037 A02 137
METAR KVGC 240356Z AUTO 00000KT 10SM SCT120 M06/M12 A3042 A02 136
METAR KVGC 240256Z AUTO 00000KT 10SM CLR M08/M13 A3044 A02 135
METAR KVGC 240156Z AUTO 00000KT 10SM CLR M06/M12 A3045 A02 134
METAR KVGC 240056Z AUTO 00000KT 10SM CLR M07/M12 A3048 A02 133
METAR KVGC 232356Z AUTO 00000KT 10SM CLR M05/M11 A3047 A02 132
METAR KVGC 232256Z AUTO 00000KT 10SM CLR M02/M16 A3044 A02 131
METAR KVGC 232156Z AUTO 00000KT 10SM CLR 00/M16 A3046 A02 130
METAR KVGC 232056Z AUTO 35003KT 10SM CLR 00/M16 A3047 A02 129
METAR KVGC 231956Z AUTO 03003KT 10SM CLR 00/M16 A3049 A02 128
METAR KVGC 231856Z AUTO 33004KT 10SM CLR 00/M17 A3050 A02 127
METAR KVGC 231756Z AUTO 32006KT 10SM CLR M01/M18 A3051 A02 126
METAR KVGC 231656Z AUTO 28007KT 10SM CLR M02/M17 A3053 A02 125
METAR KVGC 231556Z AUTO 35006KT 10SM CLR M03/M17 A3054 A02 124
METAR KVGC 231456Z AUTO 28003KT 10SM CLR M04/M17 A3055 A02 123
METAR KVGC 231356Z AUTO 00000KT 10SM CLR M07/M17 A3055 A02 122
METAR KVGC 231256Z AUTO 14003KT 10SM CLR M13/M15 A3055 A02 121
METAR KVGC 231156Z AUTO 13003KT 10SM CLR M17/M19 A3053 A02 120
METAR KVGC 231056Z AUTO 00000KT 10SM CLR M18/M20 A3051 A02 119
METAR KVGC 230956Z AUTO 00000KT 10SM CLR M17/M19 A3049 A02 118
METAR KVGC 230856Z AUTO 00000KT 10SM CLR M16/M18 A3046 A02 117
METAR KVGC 230756Z AUTO 00000KT 10SM CLR M16/M18 A3046 A02 116
METAR KVGC 230656Z AUTO 00000KT 10SM CLR M16/M17 A3045 A02 115
METAR KVGC 230556Z AUTO 14003KT 10SM CLR M15/M18 A3043 A02 114
METAR KVGC 230456Z AUTO 00000KT 10SM CLR M13/M16 A3042 A02 113
METAR KVGC 230356Z AUTO 00000KT 10SM CLR M12/M16 A3042 A02 112
METAR KVGC 230256Z AUTO 00000KT 10SM CLR M13/M17 A3042 A02 111
METAR KVGC 230156Z AUTO 27003KT 10SM CLR M12/M16 A3041 A02 110
METAR KVGC 230056Z AUTO 30003KT 10SM CLR M09/M17 A3041 A02 109
METAR KVGC 222356Z AUTO 33003KT 10SM CLR M09/M18 A3039 A02 108
METAR KVGC 222256Z AUTO 32006G16KT 10SM CLR M08/M18 A3038 A02 107
METAR KVGC 222156Z AUTO 35008G16KT 10SM SCT047 M07/M19 A3036 A02 106
METAR KVGC 222056Z AUTO 34009G20KT 10SM CLR M07/M19 A3034 A02 105
METAR KVGC 221956Z AUTO 33015G23KT 5SM CLR M08/M19 A3033 A02 104
METAR KVGC 221856Z AUTO 35016G24KT 4SM SCT043 M08/M20 A3031 A02 103
METAR KVGC 221756Z AUTO 32012G21KT 290V350 7SM BKN040 M07/M18 A3031 A02 102
METAR KVGC 221656Z AUTO 33014G23KT 3SM CLR M09/M19 A3030 A02 101
METAR KVGC 221556Z AUTO 33012G20KT 7SM CLR M09/M19 A3028 A02 100
METAR KVGC 221456Z AUTO 33015G22KT 3SM CLR M10/M20 A3026 A02 99
METAR KVGC 221356Z AUTO 35013G22KT 5SM CLR M10/M19 A3023 A02 98
METAR KVGC 221256Z AUTO 34012G23KT 4SM CLR M11/M19 A3020 A02 97
METAR KVGC 221156Z AUTO 35015G19KT 5SM CLR M11/M18 A3016 A02 96
METAR KVGC 221056Z AUTO 34012G20KT 2SM SCT019 BKN024 OVC032 M08/M12 A3011 A02 95
METAR KVGC 220956Z AUTO 33016G23KT 290V360 3/4SM OVC009 M07/M09 A3005 A02 94
METAR KVGC 220856Z AUTO 33007G18KT 2 1/2SM SCT017 BKN025 OVC032 M06/M08 A3001 A02 93
METAR KVGC 220756Z AUTO 32013G19KT 1 1/2SM OVC013 M03/M06 A2994 A02 92
METAR KVGC 220656Z AUTO 31006KT 4SM SCT004 BKN013 OVC020 M01/M03 A2989 A02 91
METAR KVGC 220556Z AUTO 29006G15KT 10SM BKN029 BKN040 OVC049 00/M05 A2987 A02 90
METAR KVGC 220456Z AUTO 29008G16KT 250V330 10SM BKN031 OVC038 01/M06 A2988 A02 89
METAR KVGC 220356Z AUTO 32011G21KT 10SM BKN035 BKN041 02/M06 A2988 A02 88
METAR KVGC 220256Z AUTO 32008KT 10SM SCT055 SCT070 02/M06 A2988 A02 87
METAR KVGC 220156Z AUTO 31013G23KT 270V340 10SM SCT070 SCT080 04/M06 A2987 A02 86
METAR KVGC 220056Z AUTO 00000KT 10SM SCT070 BKN080 00/M04 A2985 A02 85
METAR KVGC 212356Z AUTO 00000KT 10SM CLR 03/M04 A2985 A02 84
METAR KVGC 212256Z AUTO 27004KT 10SM CLR 06/M04 A2985 A02 83
METAR KVGC 212156Z AUTO 29006KT 10SM BKN047 BKN050 07/M03 A2985 A02 82
METAR KVGC 212056Z AUTO 28006KT 10SM BKN042 BKN048 BKN055 07/M03 A2986 A02 81
METAR KVGC 211956Z AUTO 30003KT 10SM BKN033 OVC040 07/M02 A2986 A02 80
METAR KVGC 211856Z AUTO 29008KT 10SM SCT034 06/M02 A2987 A02 79
METAR KVGC 211756Z AUTO 32005KT 7SM OVC021 06/00 A2988 A02 78
METAR KVGC 211656Z AUTO 30006KT 10SM OVC023 07/00 A2989 A02 77
METAR KVGC 211556Z AUTO 27006KT 10SM BKN034 BKN060 07/M01 A2989 A02 76
METAR KVGC 211456Z AUTO 00000KT 10SM SCT039 BKN049 OVC055 05/M01 A2991 A02 75
METAR KVGC 211356Z AUTO 00000KT 10SM SCT024 BKN034 OVC042 03/M02 A2991 A02 74
METAR KVGC 211256Z AUTO 00000KT 10SM BKN026 OVC040 01/M02 A2991 A02 73
METAR KVGC 211156Z AUTO 00000KT 7SM OVC070 01/M02 A2990 A02 72
METAR KVGC 211056Z AUTO 00000KT 7SM SCT020 BKN044 OVC050 00/M02 A2992 A02 71
METAR KVGC 210956Z AUTO 00000KT 10SM SCT022 SCT055 OVC085 00/M02 A2992 A02 70
METAR KVGC 210856Z AUTO 00000KT 10SM SCT065 OVC075 00/M02 A2992 A02 69
METAR KVGC 210756Z AUTO 00000KT 10SM OVC060 00/M02 A2992 A02 68
METAR KVGC 210656Z AUTO 00000KT 10SM OVC060 00/M02 A2994 A02 67
METAR KVGC 210556Z AUTO 00000KT 10SM OVC060 00/M02 A2998 A02 66
METAR KVGC 210456Z AUTO 00000KT 10SM SCT040 OVC060 00/M02 A2998 A02 65
METAR KVGC 210356Z AUTO 00000KT 10SM OVC060 00/M02 A3000 A02 64
METAR KVGC 210256Z AUTO 00000KT 10SM SCT042 OVC060 00/M02 A2999 A02 63
METAR KVGC 210156Z AUTO 00000KT 10SM SCT050 OVC070 00/M03 A3002 A02 62
METAR KVGC 210056Z AUTO 00000KT 10SM BKN080 01/M03 A3002 A02 61
METAR KVGC 202356Z AUTO 34003KT 10SM OVC080 02/M03 A3000 A02 60
METAR KVGC 202256Z AUTO 00000KT 10SM OVC090 03/M04 A3001 A02 59
METAR KVGC 202156Z AUTO 00000KT 10SM SCT060 OVC090 03/M04 A3002 A02 58
METAR KVGC 202056Z AUTO 01003KT 10SM SCT070 OVC100 03/M04 A3004 A02 57
METAR KVGC 201956Z AUTO 01006KT 10SM OVC090 04/M04 A3006 A02 56
METAR KVGC 201856Z AUTO 01005KT 10SM SCT080 OVC100 04/M04 A3009 A02 55
METAR KVGC 201756Z AUTO 00000KT 10SM OVC080 03/M03 A3012 A02 54
METAR KVGC 201656Z AUTO 00000KT 10SM OVC100 03/M03 A3013 A02 53
METAR KVGC 201556Z AUTO 00000KT 10SM BKN110 02/M03 A3012 A02 52
METAR KVGC 201456Z AUTO 00000KT 10SM OVC008 01/M03 A3014 A02 51
METAR KVGC 201356Z AUTO 04004KT 7SM OVC004 M01/M03 A3016 A02 50
METAR KVGC 201256Z AUTO 36007KT 1 3/4SM OVC002 M02/M03 A3018 A02 49
METAR KVGC 201156Z AUTO 35003KT 5SM OVC004 M02/M03 A3019 A02 48
METAR KVGC 201056Z AUTO 00000KT 7SM OVC004 M03/M04 A3019 A02 47
METAR KVGC 200956Z AUTO 00000KT 10SM OVC004 M06/M07 A3019 A02 46
METAR KVGC 200856Z AUTO 00000KT 10SM OVC004 M07/M08 A3019 A02 45
METAR KVGC 200756Z AUTO 00000KT 10SM OVC004 M08/M09 A3017 A02 44
METAR KVGC 200656Z AUTO 00000KT 10SM CLR M07/M08 A3018 A02 43
METAR KVGC 200556Z AUTO 29003KT 10SM CLR M05/M08 A3019 A02 42
METAR KVGC 200456Z AUTO 31003KT 10SM CLR M04/M08 A3020 A02 41
METAR KVGC 200356Z AUTO 34005KT 10SM CLR M02/M07 A3020 A02 40
METAR KVGC 200256Z AUTO 33003KT 10SM CLR M02/M07 A3022 A02 39
METAR KVGC 200156Z AUTO 36004KT 10SM CLR M02/M07 A3022 A02 38
METAR KVGC 200056Z AUTO 33003KT 10SM CLR 00/M07 A3022 A02 37
METAR KVGC 192356Z AUTO 33004KT 10SM CLR 01/M07 A3021 A02 36
METAR KVGC 192256Z AUTO 33007KT 10SM CLR 02/M07 A3019 A02 35
METAR KVGC 192156Z AUTO 33005KT 10SM CLR 04/M06 A3018 A02 34
METAR KVGC 192056Z AUTO 32007KT 10SM CLR 05/M06 A3018 A02 33
METAR KVGC 191956Z AUTO 35006KT 10SM CLR 05/M07 A3018 A02 32
METAR KVGC 191856Z AUTO 36004KT 10SM CLR 04/M06 A3019 A02 31
METAR KVGC 191756Z AUTO 00000KT 10SM CLR 04/M07 A3021 A02 30
METAR KVGC 191656Z AUTO 35005KT 10SM CLR 03/M06 A3024 A02 29
METAR KVGC 191556Z AUTO 02003KT 10SM CLR 02/M05 A3024 A02 28
METAR KVGC 191456Z AUTO 02003KT 10SM BKN038 01/M06 A3025 A02 27
METAR KVGC 191356Z AUTO 00000KT 10SM OVC034 01/M06 A3026 A02 26
METAR KVGC 191256Z AUTO 00000KT 10SM OVC034 M01/M04 A3024 A02 25
METAR KVGC 191156Z AUTO 00000KT 10SM OVC032 M02/M03 A3023 A02 24